sensor_id;sensor_type;location;lat;lon;timestamp;pressure;altitude;pressure_sealevel;temperature;humidity
67931;BME280;63902;52.000;5.954;2023-07-20T00:00:07;101023.00;;;15.37;88.91
67931;BME280;63902;52.000;5.954;2023-07-20T00:01:07;101015.94;;;15.36;88.60
67931;BME280;63902;52.000;5.954;2023-07-20T00:02:08;101022.31;;;15.34;89.01
67931;BME280;63902;52.000;5.954;2023-07-20T00:03:12;101012.66;;;15.31;88.95
67931;BME280;63902;52.000;5.954;2023-07-20T00:04:13;101019.75;;;15.32;88.78
67931;BME280;63902;52.000;5.954;2023-07-20T00:05:13;101013.03;;;15.25;89.02
67931;BME280;63902;52.000;5.954;2023-07-20T00:06:14;101016.47;;;15.27;89.13
67931;BME280;63902;52.000;5.954;2023-07-20T00:07:14;101018.47;;;15.24;89.19
67931;BME280;63902;52.000;5.954;2023-07-20T00:08:15;101016.84;;;15.21;89.23
67931;BME280;63902;52.000;5.954;2023-07-20T00:09:16;101018.72;;;15.19;89.47
67931;BME280;63902;52.000;5.954;2023-07-20T00:10:16;101015.19;;;15.18;89.51
67931;BME280;63902;52.000;5.954;2023-07-20T00:11:17;101023.28;;;15.17;89.73
67931;BME280;63902;52.000;5.954;2023-07-20T00:12:17;101019.75;;;15.16;89.69
67931;BME280;63902;52.000;5.954;2023-07-20T00:13:18;101027.84;;;15.15;89.66
67931;BME280;63902;52.000;5.954;2023-07-20T00:14:20;101027.09;;;15.13;89.32
67931;BME280;63902;52.000;5.954;2023-07-20T00:15:21;101024.44;;;15.13;89.66
67931;BME280;63902;52.000;5.954;2023-07-20T00:16:21;101016.31;;;15.14;89.64
67931;BME280;63902;52.000;5.954;2023-07-20T00:17:22;101015.53;;;15.12;89.54
67931;BME280;63902;52.000;5.954;2023-07-20T00:18:22;101009.44;;;15.10;89.58
67931;BME280;63902;52.000;5.954;2023-07-20T00:19:23;101017.44;;;15.10;89.79
67931;BME280;63902;52.000;5.954;2023-07-20T00:20:24;101021.16;;;15.08;90.09
67931;BME280;63902;52.000;5.954;2023-07-20T00:21:25;101022.97;;;15.07;89.82
67931;BME280;63902;52.000;5.954;2023-07-20T00:22:25;101019.41;;;15.07;89.90
67931;BME280;63902;52.000;5.954;2023-07-20T00:23:26;101021.22;;;15.06;90.03
67931;BME280;63902;52.000;5.954;2023-07-20T00:24:26;101021.31;;;15.05;90.09
67931;BME280;63902;52.000;5.954;2023-07-20T00:25:27;101011.13;;;14.95;89.89
67931;BME280;63902;52.000;5.954;2023-07-20T00:26:28;101026.06;;;14.99;90.14
67931;BME280;63902;52.000;5.954;2023-07-20T00:27:28;101012.03;;;14.96;89.96
67931;BME280;63902;52.000;5.954;2023-07-20T00:28:29;101012.97;;;14.95;90.25
67931;BME280;63902;52.000;5.954;2023-07-20T00:29:31;101016.47;;;14.95;90.09
67931;BME280;63902;52.000;5.954;2023-07-20T00:30:31;101025.22;;;14.99;90.20
67931;BME280;63902;52.000;5.954;2023-07-20T00:31:32;101021.75;;;14.97;90.16
67931;BME280;63902;52.000;5.954;2023-07-20T00:32:32;101017.38;;;14.96;90.18
67931;BME280;63902;52.000;5.954;2023-07-20T00:33:33;101019.16;;;14.95;90.42
67931;BME280;63902;52.000;5.954;2023-07-20T00:34:34;101020.97;;;14.95;90.50
67931;BME280;63902;52.000;5.954;2023-07-20T00:35:34;101020.28;;;14.91;90.62
67931;BME280;63902;52.000;5.954;2023-07-20T00:36:35;101014.44;;;14.85;90.58
67931;BME280;63902;52.000;5.954;2023-07-20T00:37:35;101010.88;;;14.84;90.82
67931;BME280;63902;52.000;5.954;2023-07-20T00:38:36;101014.44;;;14.85;90.84
67931;BME280;63902;52.000;5.954;2023-07-20T00:39:36;101009.09;;;14.85;90.72
67931;BME280;63902;52.000;5.954;2023-07-20T00:40:37;101004.78;;;14.82;90.71
67931;BME280;63902;52.000;5.954;2023-07-20T00:41:38;101011.66;;;14.86;90.52
67931;BME280;63902;52.000;5.954;2023-07-20T00:42:38;101015.19;;;14.87;90.68
67931;BME280;63902;52.000;5.954;2023-07-20T00:43:39;101018.75;;;14.87;90.81
67931;BME280;63902;52.000;5.954;2023-07-20T00:44:41;101013.41;;;14.87;90.76
67931;BME280;63902;52.000;5.954;2023-07-20T00:45:42;101024.09;;;14.87;90.84
67931;BME280;63902;52.000;5.954;2023-07-20T00:46:43;101021.41;;;14.87;90.98
67931;BME280;63902;52.000;5.954;2023-07-20T00:47:44;101018.81;;;14.86;91.05
67931;BME280;63902;52.000;5.954;2023-07-20T00:48:45;101015.38;;;14.84;91.01
67931;BME280;63902;52.000;5.954;2023-07-20T00:49:45;101018.13;;;14.82;91.13
67931;BME280;63902;52.000;5.954;2023-07-20T00:50:46;101007.53;;;14.81;91.43
67931;BME280;63902;52.000;5.954;2023-07-20T00:51:48;101016.31;;;14.83;91.46
67931;BME280;63902;52.000;5.954;2023-07-20T00:52:49;101018.91;;;14.84;91.27
67931;BME280;63902;52.000;5.954;2023-07-20T00:53:50;101017.13;;;14.85;91.09
67931;BME280;63902;52.000;5.954;2023-07-20T00:54:51;101016.31;;;14.83;91.31
67931;BME280;63902;52.000;5.954;2023-07-20T00:55:52;101008.72;;;14.75;91.51
67931;BME280;63902;52.000;5.954;2023-07-20T00:56:54;101010.31;;;14.79;91.77
67931;BME280;63902;52.000;5.954;2023-07-20T00:57:55;101006.84;;;14.77;91.70
67931;BME280;63902;52.000;5.954;2023-07-20T00:58:55;101014.06;;;14.75;91.79
67931;BME280;63902;52.000;5.954;2023-07-20T00:59:57;101008.72;;;14.75;91.95
67931;BME280;63902;52.000;5.954;2023-07-20T01:00:58;101012.19;;;14.77;91.74
67931;BME280;63902;52.000;5.954;2023-07-20T01:01:58;101013.91;;;14.78;91.87
67931;BME280;63902;52.000;5.954;2023-07-20T01:02:59;101010.31;;;14.79;91.63
67931;BME280;63902;52.000;5.954;2023-07-20T01:03:59;101011.22;;;14.78;91.81
67931;BME280;63902;52.000;5.954;2023-07-20T01:05:00;101008.91;;;14.72;92.04
67931;BME280;63902;52.000;5.954;2023-07-20T01:06:09;101008.84;;;14.73;92.02
67931;BME280;63902;52.000;5.954;2023-07-20T01:07:14;101008.72;;;14.75;91.97
67931;BME280;63902;52.000;5.954;2023-07-20T01:08:21;101007.81;;;14.76;92.00
67931;BME280;63902;52.000;5.954;2023-07-20T01:09:27;101007.81;;;14.76;92.06
67931;BME280;63902;52.000;5.954;2023-07-20T01:10:32;100998.56;;;14.66;92.04
67931;BME280;63902;52.000;5.954;2023-07-20T01:11:38;101004.59;;;14.69;92.36
67931;BME280;63902;52.000;5.954;2023-07-20T01:12:42;101013.47;;;14.70;92.56
67931;BME280;63902;52.000;5.954;2023-07-20T01:13:43;101004.59;;;14.69;92.54
67931;BME280;63902;52.000;5.954;2023-07-20T01:14:44;101010.97;;;14.67;92.63
67931;BME280;63902;52.000;5.954;2023-07-20T01:15:50;101009.16;;;14.67;92.81
67931;BME280;63902;52.000;5.954;2023-07-20T01:16:53;101007.53;;;14.65;92.66
67931;BME280;63902;52.000;5.954;2023-07-20T01:17:54;101018.97;;;14.67;92.83
67931;BME280;63902;52.000;5.954;2023-07-20T01:18:54;101028.91;;;14.65;93.07
67931;BME280;63902;52.000;5.954;2023-07-20T01:19:55;101018.22;;;14.65;93.37
67931;BME280;63902;52.000;5.954;2023-07-20T01:20:59;101032.31;;;14.67;93.21
67931;BME280;63902;52.000;5.954;2023-07-20T01:22:05;101025.16;;;14.67;93.29
67931;BME280;63902;52.000;5.954;2023-07-20T01:23:28;101037.66;;;14.67;93.26
67931;BME280;63902;52.000;5.954;2023-07-20T01:25:05;101025.28;;;14.66;93.15
67931;BME280;63902;52.000;5.954;2023-07-20T01:26:22;101033.28;;;14.66;93.17
67931;BME280;63902;52.000;5.954;2023-07-20T01:27:51;101035.16;;;14.64;93.10
67931;BME280;63902;52.000;5.954;2023-07-20T01:29:16;101039.47;;;14.66;92.86
67931;BME280;63902;52.000;5.954;2023-07-20T01:30:34;101036.81;;;14.66;92.93
67931;BME280;63902;52.000;5.954;2023-07-20T01:31:39;101035.84;;;14.67;92.68
67931;BME280;63902;52.000;5.954;2023-07-20T01:32:42;101038.44;;;14.69;92.88
67931;BME280;63902;52.000;5.954;2023-07-20T01:33:44;101033.97;;;14.69;92.82
67931;BME280;63902;52.000;5.954;2023-07-20T01:34:47;101038.38;;;14.70;92.93
67931;BME280;63902;52.000;5.954;2023-07-20T01:35:53;101035.59;;;14.72;93.08
67931;BME280;63902;52.000;5.954;2023-07-20T01:36:55;101036.56;;;14.71;93.18
67931;BME280;63902;52.000;5.954;2023-07-20T01:37:57;101036.63;;;14.69;93.18
67931;BME280;63902;52.000;5.954;2023-07-20T01:38:59;101039.31;;;14.69;93.43
67931;BME280;63902;52.000;5.954;2023-07-20T01:39:59;101038.44;;;14.69;93.20
67931;BME280;63902;52.000;5.954;2023-07-20T01:41:00;101038.50;;;14.67;93.70
67931;BME280;63902;52.000;5.954;2023-07-20T01:42:02;101041.28;;;14.66;93.89
67931;BME280;63902;52.000;5.954;2023-07-20T01:43:03;101039.56;;;14.65;94.14
67931;BME280;63902;52.000;5.954;2023-07-20T01:44:04;101039.56;;;14.65;93.99
67931;BME280;63902;52.000;5.954;2023-07-20T01:45:05;101041.13;;;14.69;94.04
67931;BME280;63902;52.000;5.954;2023-07-20T01:46:05;101032.16;;;14.70;94.05
67931;BME280;63902;52.000;5.954;2023-07-20T01:47:08;101048.34;;;14.67;94.40
67931;BME280;63902;52.000;5.954;2023-07-20T01:48:08;101033.44;;;14.63;94.47
67931;BME280;63902;52.000;5.954;2023-07-20T01:49:09;101036.13;;;14.63;94.52
67931;BME280;63902;52.000;5.954;2023-07-20T01:50:10;101025.91;;;14.53;94.48
67931;BME280;63902;52.000;5.954;2023-07-20T01:51:10;101040.66;;;14.61;94.68
67931;BME280;63902;52.000;5.954;2023-07-20T01:52:11;101029.53;;;14.52;94.95
67931;BME280;63902;52.000;5.954;2023-07-20T01:53:11;101032.16;;;14.54;95.00
67931;BME280;63902;52.000;5.954;2023-07-20T01:54:12;101035.03;;;14.49;95.09
67931;BME280;63902;52.000;5.954;2023-07-20T01:55:12;101034.34;;;14.46;95.42
67931;BME280;63902;52.000;5.954;2023-07-20T01:56:13;101037.91;;;14.45;95.55
67931;BME280;63902;52.000;5.954;2023-07-20T01:57:13;101021.41;;;14.38;95.74
67931;BME280;63902;52.000;5.954;2023-07-20T01:58:14;101016.28;;;14.33;95.70
67931;BME280;63902;52.000;5.954;2023-07-20T01:59:15;101036.22;;;14.44;95.84
67931;BME280;63902;52.000;5.954;2023-07-20T02:00:16;101043.25;;;14.45;95.80
67931;BME280;63902;52.000;5.954;2023-07-20T02:01:16;101030.19;;;14.40;95.60
67931;BME280;63902;52.000;5.954;2023-07-20T02:02:18;101038.09;;;14.42;95.74
67931;BME280;63902;52.000;5.954;2023-07-20T02:03:19;101035.53;;;14.40;95.52
67931;BME280;63902;52.000;5.954;2023-07-20T02:04:19;101041.88;;;14.38;95.70
67931;BME280;63902;52.000;5.954;2023-07-20T02:05:20;101039.28;;;14.36;95.78
67931;BME280;63902;52.000;5.954;2023-07-20T02:06:21;101033.09;;;14.36;95.83
67931;BME280;63902;52.000;5.954;2023-07-20T02:07:21;101032.41;;;14.32;95.86
67931;BME280;63902;52.000;5.954;2023-07-20T02:08:22;101043.94;;;14.32;96.07
67931;BME280;63902;52.000;5.954;2023-07-20T02:09:22;101026.50;;;14.25;96.15
67931;BME280;63902;52.000;5.954;2023-07-20T02:10:23;101035.31;;;14.27;96.00
67931;BME280;63902;52.000;5.954;2023-07-20T02:11:23;101034.50;;;14.25;96.30
67931;BME280;63902;52.000;5.954;2023-07-20T02:12:24;101033.50;;;14.28;96.13
67931;BME280;63902;52.000;5.954;2023-07-20T02:13:24;101033.50;;;14.28;96.35
67931;BME280;63902;52.000;5.954;2023-07-20T02:14:25;101035.13;;;14.30;96.08
67931;BME280;63902;52.000;5.954;2023-07-20T02:15:25;101024.72;;;14.26;95.96
67931;BME280;63902;52.000;5.954;2023-07-20T02:16:26;101019.63;;;14.21;96.20
67931;BME280;63902;52.000;5.954;2023-07-20T02:17:28;101023.31;;;14.19;96.25
67931;BME280;63902;52.000;5.954;2023-07-20T02:18:28;101037.28;;;14.24;96.16
67931;BME280;63902;52.000;5.954;2023-07-20T02:19:29;101030.38;;;14.20;95.95
67931;BME280;63902;52.000;5.954;2023-07-20T02:20:30;101038.38;;;14.20;96.42
67931;BME280;63902;52.000;5.954;2023-07-20T02:21:31;101028.75;;;14.17;96.48
67931;BME280;63902;52.000;5.954;2023-07-20T02:22:31;101031.47;;;14.16;96.35
67931;BME280;63902;52.000;5.954;2023-07-20T02:23:32;101034.31;;;14.13;96.41
67931;BME280;63902;52.000;5.954;2023-07-20T02:24:32;101034.38;;;14.11;96.59
67931;BME280;63902;52.000;5.954;2023-07-20T02:25:33;101037.22;;;14.08;96.48
67931;BME280;63902;52.000;5.954;2023-07-20T02:26:33;101039.19;;;14.04;96.62
67931;BME280;63902;52.000;5.954;2023-07-20T02:27:34;101041.06;;;14.02;96.83
67931;BME280;63902;52.000;5.954;2023-07-20T02:28:35;101041.06;;;14.02;96.84
67931;BME280;63902;52.000;5.954;2023-07-20T02:29:35;101037.63;;;14.00;96.74
67931;BME280;63902;52.000;5.954;2023-07-20T02:30:37;101041.91;;;14.03;96.91
67931;BME280;63902;52.000;5.954;2023-07-20T02:31:38;101042.88;;;14.02;96.85
67931;BME280;63902;52.000;5.954;2023-07-20T02:32:40;101042.97;;;14.00;96.79
67931;BME280;63902;52.000;5.954;2023-07-20T02:33:40;101040.44;;;13.97;96.93
67931;BME280;63902;52.000;5.954;2023-07-20T02:34:41;101037.75;;;13.97;97.00
67931;BME280;63902;52.000;5.954;2023-07-20T02:35:41;101043.09;;;13.97;96.99
67931;BME280;63902;52.000;5.954;2023-07-20T02:36:42;101044.06;;;13.96;96.72
67931;BME280;63902;52.000;5.954;2023-07-20T02:37:42;101038.88;;;13.93;96.88
67931;BME280;63902;52.000;5.954;2023-07-20T02:38:43;101035.34;;;13.93;97.09
67931;BME280;63902;52.000;5.954;2023-07-20T02:39:43;101040.69;;;13.93;96.81
67931;BME280;63902;52.000;5.954;2023-07-20T02:40:44;101039.84;;;13.92;97.04
67931;BME280;63902;52.000;5.954;2023-07-20T02:41:44;101043.41;;;13.91;97.02
67931;BME280;63902;52.000;5.954;2023-07-20T02:42:45;101040.06;;;13.87;97.22
67931;BME280;63902;52.000;5.954;2023-07-20T02:43:45;101042.78;;;13.86;97.07
67931;BME280;63902;52.000;5.954;2023-07-20T02:44:46;101046.41;;;13.85;97.34
67931;BME280;63902;52.000;5.954;2023-07-20T02:45:46;101042.03;;;13.84;97.25
67931;BME280;63902;52.000;5.954;2023-07-20T02:46:47;101028.22;;;13.76;97.22
67931;BME280;63902;52.000;5.954;2023-07-20T02:47:49;101033.56;;;13.76;97.37
67931;BME280;63902;52.000;5.954;2023-07-20T02:48:49;101047.66;;;13.78;97.40
67931;BME280;63902;52.000;5.954;2023-07-20T02:49:50;101044.38;;;13.73;97.43
67931;BME280;63902;52.000;5.954;2023-07-20T02:50:50;101048.81;;;13.72;97.71
67931;BME280;63902;52.000;5.954;2023-07-20T02:51:51;101043.66;;;13.69;97.76
67931;BME280;63902;52.000;5.954;2023-07-20T02:52:51;101043.66;;;13.69;97.82
67931;BME280;63902;52.000;5.954;2023-07-20T02:53:52;101053.44;;;13.69;97.91
67931;BME280;63902;52.000;5.954;2023-07-20T02:54:52;101047.31;;;13.66;97.83
67931;BME280;63902;52.000;5.954;2023-07-20T02:55:53;101044.66;;;13.66;97.98
67931;BME280;63902;52.000;5.954;2023-07-20T02:56:53;101049.94;;;13.68;97.66
67931;BME280;63902;52.000;5.954;2023-07-20T02:57:54;101057.06;;;13.68;97.63
67931;BME280;63902;52.000;5.954;2023-07-20T02:58:55;101055.31;;;13.66;97.74
67931;BME280;63902;52.000;5.954;2023-07-20T02:59:55;101052.13;;;13.60;97.71
67931;BME280;63902;52.000;5.954;2023-07-20T03:00:56;101060.03;;;13.61;97.68
67931;BME280;63902;52.000;5.954;2023-07-20T03:01:56;101064.59;;;13.59;97.75
67931;BME280;63902;52.000;5.954;2023-07-20T03:02:58;101060.97;;;13.60;97.84
67931;BME280;63902;52.000;5.954;2023-07-20T03:03:58;101047.25;;;13.51;97.82
67931;BME280;63902;52.000;5.954;2023-07-20T03:04:59;101070.88;;;13.58;97.62
67931;BME280;63902;52.000;5.954;2023-07-20T03:05:59;101060.47;;;13.52;97.77
67931;BME280;63902;52.000;5.954;2023-07-20T03:07:00;101066.59;;;13.54;98.01
67931;BME280;63902;52.000;5.954;2023-07-20T03:08:00;101070.22;;;13.53;97.72
67931;BME280;63902;52.000;5.954;2023-07-20T03:09:01;101067.72;;;13.50;97.99
67931;BME280;63902;52.000;5.954;2023-07-20T03:10:01;101073.09;;;13.49;97.98
67931;BME280;63902;52.000;5.954;2023-07-20T03:11:02;101079.28;;;13.49;97.93
67931;BME280;63902;52.000;5.954;2023-07-20T03:12:03;101074.06;;;13.48;98.11
67931;BME280;63902;52.000;5.954;2023-07-20T03:13:04;101072.41;;;13.45;98.13
67931;BME280;63902;52.000;5.954;2023-07-20T03:14:04;101070.66;;;13.44;98.17
67931;BME280;63902;52.000;5.954;2023-07-20T03:15:06;101072.56;;;13.42;98.21
67931;BME280;63902;52.000;5.954;2023-07-20T03:16:07;101070.81;;;13.41;98.21
67931;BME280;63902;52.000;5.954;2023-07-20T03:17:07;101069.94;;;13.40;98.09
67931;BME280;63902;52.000;5.954;2023-07-20T03:18:09;101070.97;;;13.38;98.02
67931;BME280;63902;52.000;5.954;2023-07-20T03:19:10;101075.50;;;13.36;98.04
67931;BME280;63902;52.000;5.954;2023-07-20T03:20:11;101080.91;;;13.34;98.31
67931;BME280;63902;52.000;5.954;2023-07-20T03:21:11;101076.44;;;13.35;98.20
67931;BME280;63902;52.000;5.954;2023-07-20T03:22:12;101078.31;;;13.33;98.13
67931;BME280;63902;52.000;5.954;2023-07-20T03:23:12;101078.53;;;13.28;98.38
67931;BME280;63902;52.000;5.954;2023-07-20T03:24:13;101071.47;;;13.27;98.26
67931;BME280;63902;52.000;5.954;2023-07-20T03:25:14;101074.13;;;13.27;97.92
67931;BME280;63902;52.000;5.954;2023-07-20T03:26:14;101073.22;;;13.28;98.15
67931;BME280;63902;52.000;5.954;2023-07-20T03:27:15;101083.03;;;13.28;98.27
67931;BME280;63902;52.000;5.954;2023-07-20T03:28:15;101081.22;;;13.28;98.12
67931;BME280;63902;52.000;5.954;2023-07-20T03:29:15;101073.28;;;13.27;98.04
67931;BME280;63902;52.000;5.954;2023-07-20T03:30:16;101072.38;;;13.28;98.08
67931;BME280;63902;52.000;5.954;2023-07-20T03:31:17;101073.34;;;13.25;97.81
67931;BME280;63902;52.000;5.954;2023-07-20T03:32:17;101070.72;;;13.24;98.07
67931;BME280;63902;52.000;5.954;2023-07-20T03:33:19;101071.69;;;13.23;97.97
67931;BME280;63902;52.000;5.954;2023-07-20T03:34:20;101076.28;;;13.19;97.92
67931;BME280;63902;52.000;5.954;2023-07-20T03:35:20;101075.50;;;13.17;98.06
67931;BME280;63902;52.000;5.954;2023-07-20T03:36:21;101074.72;;;13.15;98.29
67931;BME280;63902;52.000;5.954;2023-07-20T03:37:21;101071.19;;;13.14;98.34
67931;BME280;63902;52.000;5.954;2023-07-20T03:38:22;101065.22;;;13.09;98.34
67931;BME280;63902;52.000;5.954;2023-07-20T03:39:23;101073.84;;;13.14;98.19
67931;BME280;63902;52.000;5.954;2023-07-20T03:40:23;101072.09;;;13.13;98.06
67931;BME280;63902;52.000;5.954;2023-07-20T03:41:24;101079.19;;;13.14;98.00
67931;BME280;63902;52.000;5.954;2023-07-20T03:42:24;101079.22;;;13.13;98.08
67931;BME280;63902;52.000;5.954;2023-07-20T03:43:26;101081.13;;;13.11;98.09
67931;BME280;63902;52.000;5.954;2023-07-20T03:44:27;101076.81;;;13.08;98.29
67931;BME280;63902;52.000;5.954;2023-07-20T03:45:28;101076.88;;;13.07;98.41
67931;BME280;63902;52.000;5.954;2023-07-20T03:46:28;101067.38;;;13.01;98.49
67931;BME280;63902;52.000;5.954;2023-07-20T03:47:29;101072.53;;;13.04;98.63
67931;BME280;63902;52.000;5.954;2023-07-20T03:48:30;101070.84;;;13.03;98.51
67931;BME280;63902;52.000;5.954;2023-07-20T03:49:31;101061.41;;;12.96;98.56
67931;BME280;63902;52.000;5.954;2023-07-20T03:50:31;101063.91;;;12.99;98.57
67931;BME280;63902;52.000;5.954;2023-07-20T03:51:32;101074.41;;;13.02;98.41
67931;BME280;63902;52.000;5.954;2023-07-20T03:52:32;101077.06;;;13.02;98.41
67931;BME280;63902;52.000;5.954;2023-07-20T03:53:33;101075.44;;;12.99;98.47
67931;BME280;63902;52.000;5.954;2023-07-20T03:54:33;101080.03;;;12.96;98.52
67931;BME280;63902;52.000;5.954;2023-07-20T03:55:34;101076.66;;;12.92;98.73
67931;BME280;63902;52.000;5.954;2023-07-20T03:56:34;101083.78;;;12.92;98.74
67931;BME280;63902;52.000;5.954;2023-07-20T03:57:35;101086.50;;;12.90;98.84
67931;BME280;63902;52.000;5.954;2023-07-20T03:58:35;101076.84;;;12.88;98.83
67931;BME280;63902;52.000;5.954;2023-07-20T03:59:37;101079.66;;;12.85;98.77
67931;BME280;63902;52.000;5.954;2023-07-20T04:00:37;101085.94;;;12.84;98.87
67931;BME280;63902;52.000;5.954;2023-07-20T04:01:38;101085.06;;;12.83;98.93
67931;BME280;63902;52.000;5.954;2023-07-20T04:02:38;101089.53;;;12.83;99.11
67931;BME280;63902;52.000;5.954;2023-07-20T04:03:40;101086.78;;;12.84;99.19
67931;BME280;63902;52.000;5.954;2023-07-20T04:04:41;101086.75;;;12.86;99.12
67931;BME280;63902;52.000;5.954;2023-07-20T04:05:41;101087.66;;;12.85;98.78
67931;BME280;63902;52.000;5.954;2023-07-20T04:06:42;101094.72;;;12.86;98.85
67931;BME280;63902;52.000;5.954;2023-07-20T04:07:42;101089.47;;;12.84;98.72
67931;BME280;63902;52.000;5.954;2023-07-20T04:08:44;101091.25;;;12.84;98.71
67931;BME280;63902;52.000;5.954;2023-07-20T04:09:45;101093.94;;;12.84;98.78
67931;BME280;63902;52.000;5.954;2023-07-20T04:10:45;101093.94;;;12.84;98.75
67931;BME280;63902;52.000;5.954;2023-07-20T04:11:46;101090.41;;;12.83;98.86
67931;BME280;63902;52.000;5.954;2023-07-20T04:12:46;101092.22;;;12.83;98.84
67931;BME280;63902;52.000;5.954;2023-07-20T04:13:47;101096.63;;;12.82;98.90
67931;BME280;63902;52.000;5.954;2023-07-20T04:14:47;101090.41;;;12.83;98.78
67931;BME280;63902;52.000;5.954;2023-07-20T04:15:48;101094.72;;;12.86;98.69
67931;BME280;63902;52.000;5.954;2023-07-20T04:16:48;101098.25;;;12.86;98.70
67931;BME280;63902;52.000;5.954;2023-07-20T04:17:49;101095.63;;;12.85;98.63
67931;BME280;63902;52.000;5.954;2023-07-20T04:18:51;101088.66;;;12.82;98.74
67931;BME280;63902;52.000;5.954;2023-07-20T04:19:51;101098.31;;;12.85;98.64
67931;BME280;63902;52.000;5.954;2023-07-20T04:20:52;101086.22;;;12.77;98.57
67931;BME280;63902;52.000;5.954;2023-07-20T04:21:52;101098.31;;;12.85;98.57
67931;BME280;63902;52.000;5.954;2023-07-20T04:22:53;101092.22;;;12.83;98.49
67931;BME280;63902;52.000;5.954;2023-07-20T04:23:53;101097.38;;;12.86;98.80
67931;BME280;63902;52.000;5.954;2023-07-20T04:24:54;101091.25;;;12.84;98.66
67931;BME280;63902;52.000;5.954;2023-07-20T04:25:54;101093.78;;;12.87;98.69
67931;BME280;63902;52.000;5.954;2023-07-20T04:26:55;101095.50;;;12.88;98.68
67931;BME280;63902;52.000;5.954;2023-07-20T04:27:55;101088.41;;;12.88;98.63
67931;BME280;63902;52.000;5.954;2023-07-20T04:28:56;101091.97;;;12.87;98.67
67931;BME280;63902;52.000;5.954;2023-07-20T04:29:58;101089.41;;;12.86;98.75
67931;BME280;63902;52.000;5.954;2023-07-20T04:31:09;101095.34;;;12.91;98.63
67931;BME280;63902;52.000;5.954;2023-07-20T04:32:10;101084.94;;;12.86;98.66
67931;BME280;63902;52.000;5.954;2023-07-20T04:33:10;101090.03;;;12.91;98.81
67931;BME280;63902;52.000;5.954;2023-07-20T04:34:12;101097.97;;;12.92;98.52
67931;BME280;63902;52.000;5.954;2023-07-20T04:35:17;101097.91;;;12.94;98.57
67931;BME280;63902;52.000;5.954;2023-07-20T04:36:18;101105.75;;;12.97;98.49
67931;BME280;63902;52.000;5.954;2023-07-20T04:37:19;101099.47;;;12.98;98.39
67931;BME280;63902;52.000;5.954;2023-07-20T04:38:19;101098.53;;;12.99;98.34
67931;BME280;63902;52.000;5.954;2023-07-20T04:39:20;101105.59;;;13.00;98.34
67931;BME280;63902;52.000;5.954;2023-07-20T04:40:20;101100.31;;;12.98;98.49
67931;BME280;63902;52.000;5.954;2023-07-20T04:41:21;101102.00;;;13.01;98.25
67931;BME280;63902;52.000;5.954;2023-07-20T04:42:21;101104.59;;;13.03;98.32
67931;BME280;63902;52.000;5.954;2023-07-20T04:43:22;101103.84;;;12.99;98.49
67931;BME280;63902;52.000;5.954;2023-07-20T04:44:22;101113.28;;;13.06;98.39
67931;BME280;63902;52.000;5.954;2023-07-20T04:45:23;101116.91;;;13.05;98.27
67931;BME280;63902;52.000;5.954;2023-07-20T04:46:23;101117.75;;;13.06;98.37
67931;BME280;63902;52.000;5.954;2023-07-20T04:47:24;101096.00;;;12.96;98.44
67931;BME280;63902;52.000;5.954;2023-07-20T04:48:25;101109.78;;;13.06;98.41
67931;BME280;63902;52.000;5.954;2023-07-20T04:49:27;101112.34;;;13.07;98.40
67931;BME280;63902;52.000;5.954;2023-07-20T04:50:27;101109.53;;;13.10;98.38
67931;BME280;63902;52.000;5.954;2023-07-20T04:51:28;101111.28;;;13.11;98.32
67931;BME280;63902;52.000;5.954;2023-07-20T04:52:28;101117.47;;;13.12;98.39
67931;BME280;63902;52.000;5.954;2023-07-20T04:53:29;101120.03;;;13.13;98.47
67931;BME280;63902;52.000;5.954;2023-07-20T04:54:30;101110.63;;;13.06;98.49
67931;BME280;63902;52.000;5.954;2023-07-20T04:55:30;101121.78;;;13.14;98.89
67931;BME280;63902;52.000;5.954;2023-07-20T04:56:31;101114.66;;;13.15;98.41
67931;BME280;63902;52.000;5.954;2023-07-20T04:57:31;101116.47;;;13.14;98.50
67931;BME280;63902;52.000;5.954;2023-07-20T04:58:32;101116.47;;;13.14;98.33
67931;BME280;63902;52.000;5.954;2023-07-20T04:59:32;101116.38;;;13.16;98.69
67931;BME280;63902;52.000;5.954;2023-07-20T05:00:33;101117.31;;;13.15;98.52
67931;BME280;63902;52.000;5.954;2023-07-20T05:01:34;101119.84;;;13.18;98.69
67931;BME280;63902;52.000;5.954;2023-07-20T05:02:34;101119.78;;;13.19;98.62
67931;BME280;63902;52.000;5.954;2023-07-20T05:03:35;101112.84;;;13.15;98.57
67931;BME280;63902;52.000;5.954;2023-07-20T05:04:37;101122.44;;;13.19;98.67
67931;BME280;63902;52.000;5.954;2023-07-20T05:05:37;101122.28;;;13.23;98.48
67931;BME280;63902;52.000;5.954;2023-07-20T05:06:38;101111.63;;;13.23;98.52
67931;BME280;63902;52.000;5.954;2023-07-20T05:07:38;101119.50;;;13.26;98.67
67931;BME280;63902;52.000;5.954;2023-07-20T05:08:39;101115.84;;;13.28;98.37
67931;BME280;63902;52.000;5.954;2023-07-20T05:09:39;101121.09;;;13.30;98.43
67931;BME280;63902;52.000;5.954;2023-07-20T05:10:40;101115.75;;;13.30;98.17
67931;BME280;63902;52.000;5.954;2023-07-20T05:11:40;101115.75;;;13.30;98.51
67931;BME280;63902;52.000;5.954;2023-07-20T05:12:41;101114.97;;;13.28;98.32
67931;BME280;63902;52.000;5.954;2023-07-20T05:13:41;101112.19;;;13.31;98.40
67931;BME280;63902;52.000;5.954;2023-07-20T05:14:42;101105.19;;;13.28;98.32
67931;BME280;63902;52.000;5.954;2023-07-20T05:15:42;101112.88;;;13.34;98.44
67931;BME280;63902;52.000;5.954;2023-07-20T05:16:43;101113.75;;;13.35;98.17
67931;BME280;63902;52.000;5.954;2023-07-20T05:17:44;101120.72;;;13.37;98.31
67931;BME280;63902;52.000;5.954;2023-07-20T05:18:44;101107.63;;;13.33;98.37
67931;BME280;63902;52.000;5.954;2023-07-20T05:19:46;101111.94;;;13.35;98.25
67931;BME280;63902;52.000;5.954;2023-07-20T05:20:47;101119.72;;;13.40;98.34